sensor_id;sensor_type;location;lat;lon;timestamp;P1;durP1;ratioP1;P2;durP2;ratioP2
16426;SDS011;8322;-33.900;151.170;2023-06-01T00:00:33;7.00;;;2.67;;
16426;SDS011;8322;-33.900;151.170;2023-06-01T00:03:04;6.57;;;2.75;;
16426;SDS011;8322;-33.900;151.170;2023-06-01T00:05:33;9.63;;;3.40;;
16426;SDS011;8322;-33.900;151.170;2023-06-01T00:08:04;6.10;;;3.30;;
16426;SDS011;8322;-33.900;151.170;2023-06-01T00:10:34;7.05;;;2.70;;
16426;SDS011;8322;-33.900;151.170;2023-06-01T00:13:03;3.97;;;2.28;;
16426;SDS011;8322;-33.900;151.170;2023-06-01T00:15:33;4.20;;;2.13;;
16426;SDS011;8322;-33.900;151.170;2023-06-01T00:18:02;6.07;;;2.47;;
16426;SDS011;8322;-33.900;151.170;2023-06-01T00:20:32;3.63;;;2.45;;
16426;SDS011;8322;-33.900;151.170;2023-06-01T00:23:01;6.60;;;2.05;;
16426;SDS011;8322;-33.900;151.170;2023-06-01T00:25:33;2.13;;;1.77;;
16426;SDS011;8322;-33.900;151.170;2023-06-01T00:28:02;2.78;;;1.58;;
16426;SDS011;8322;-33.900;151.170;2023-06-01T00:30:32;3.13;;;1.52;;
16426;SDS011;8322;-33.900;151.170;2023-06-01T00:33:02;4.63;;;1.90;;
16426;SDS011;8322;-33.900;151.170;2023-06-01T00:35:31;1.73;;;1.42;;
16426;SDS011;8322;-33.900;151.170;2023-06-01T00:38:01;2.97;;;1.50;;
16426;SDS011;8322;-33.900;151.170;2023-06-01T00:40:30;3.58;;;1.55;;
16426;SDS011;8322;-33.900;151.170;2023-06-01T00:43:01;2.75;;;1.55;;
16426;SDS011;8322;-33.900;151.170;2023-06-01T00:45:31;2.97;;;1.65;;
16426;SDS011;8322;-33.900;151.170;2023-06-01T00:48:00;4.03;;;1.67;;
16426;SDS011;8322;-33.900;151.170;2023-06-01T00:50:30;4.13;;;1.90;;
16426;SDS011;8322;-33.900;151.170;2023-06-01T00:53:00;3.55;;;2.40;;
16426;SDS011;8322;-33.900;151.170;2023-06-01T00:55:30;2.35;;;1.63;;
16426;SDS011;8322;-33.900;151.170;2023-06-01T00:58:02;4.30;;;1.25;;
16426;SDS011;8322;-33.900;151.170;2023-06-01T01:00:31;3.65;;;1.50;;
16426;SDS011;8322;-33.900;151.170;2023-06-01T01:03:01;3.97;;;1.40;;
16426;SDS011;8322;-33.900;151.170;2023-06-01T01:05:33;4.32;;;1.80;;
16426;SDS011;8322;-33.900;151.170;2023-06-01T01:08:04;3.67;;;2.55;;
16426;SDS011;8322;-33.900;151.170;2023-06-01T01:10:37;4.53;;;2.10;;
16426;SDS011;8322;-33.900;151.170;2023-06-01T01:13:10;8.57;;;3.47;;
16426;SDS011;8322;-33.900;151.170;2023-06-01T01:15:45;7.03;;;4.00;;
16426;SDS011;8322;-33.900;151.170;2023-06-01T01:18:19;5.90;;;3.15;;
16426;SDS011;8322;-33.900;151.170;2023-06-01T01:20:54;6.45;;;2.70;;
16426;SDS011;8322;-33.900;151.170;2023-06-01T01:23:32;3.83;;;1.77;;
16426;SDS011;8322;-33.900;151.170;2023-06-01T01:26:14;7.85;;;4.15;;
16426;SDS011;8322;-33.900;151.170;2023-06-01T01:28:47;3.40;;;1.98;;
16426;SDS011;8322;-33.900;151.170;2023-06-01T01:31:17;5.57;;;2.45;;
16426;SDS011;8322;-33.900;151.170;2023-06-01T01:33:47;5.45;;;2.00;;
16426;SDS011;8322;-33.900;151.170;2023-06-01T01:36:17;4.28;;;1.90;;
16426;SDS011;8322;-33.900;151.170;2023-06-01T01:38:46;3.20;;;1.80;;
16426;SDS011;8322;-33.900;151.170;2023-06-01T01:41:16;5.40;;;2.00;;
16426;SDS011;8322;-33.900;151.170;2023-06-01T01:43:48;5.75;;;2.58;;
16426;SDS011;8322;-33.900;151.170;2023-06-01T01:46:21;6.50;;;2.53;;
16426;SDS011;8322;-33.900;151.170;2023-06-01T01:48:58;4.10;;;1.70;;
16426;SDS011;8322;-33.900;151.170;2023-06-01T01:51:32;4.38;;;1.80;;
16426;SDS011;8322;-33.900;151.170;2023-06-01T01:54:05;3.78;;;1.80;;
16426;SDS011;8322;-33.900;151.170;2023-06-01T01:56:35;3.45;;;1.70;;
16426;SDS011;8322;-33.900;151.170;2023-06-01T01:59:07;3.17;;;1.95;;
16426;SDS011;8322;-33.900;151.170;2023-06-01T02:01:36;3.40;;;1.70;;
16426;SDS011;8322;-33.900;151.170;2023-06-01T02:04:07;2.75;;;1.50;;
16426;SDS011;8322;-33.900;151.170;2023-06-01T02:06:37;3.88;;;1.90;;
16426;SDS011;8322;-33.900;151.170;2023-06-01T02:09:06;4.95;;;2.42;;
16426;SDS011;8322;-33.900;151.170;2023-06-01T02:11:36;3.42;;;1.67;;
16426;SDS011;8322;-33.900;151.170;2023-06-01T02:14:07;2.47;;;1.50;;
16426;SDS011;8322;-33.900;151.170;2023-06-01T02:16:37;4.30;;;1.80;;
16426;SDS011;8322;-33.900;151.170;2023-06-01T02:19:06;3.90;;;1.90;;
16426;SDS011;8322;-33.900;151.170;2023-06-01T02:21:37;3.15;;;1.80;;
16426;SDS011;8322;-33.900;151.170;2023-06-01T02:24:06;4.60;;;2.10;;
16426;SDS011;8322;-33.900;151.170;2023-06-01T02:26:35;3.58;;;1.73;;
16426;SDS011;8322;-33.900;151.170;2023-06-01T02:29:05;1.83;;;1.40;;
16426;SDS011;8322;-33.900;151.170;2023-06-01T02:31:36;2.70;;;1.50;;
16426;SDS011;8322;-33.900;151.170;2023-06-01T02:34:06;4.72;;;1.55;;
16426;SDS011;8322;-33.900;151.170;2023-06-01T02:36:35;1.27;;;1.15;;
16426;SDS011;8322;-33.900;151.170;2023-06-01T02:39:05;3.03;;;1.85;;
16426;SDS011;8322;-33.900;151.170;2023-06-01T02:41:37;1.88;;;1.25;;
16426;SDS011;8322;-33.900;151.170;2023-06-01T02:44:06;3.90;;;1.30;;
16426;SDS011;8322;-33.900;151.170;2023-06-01T02:46:37;3.17;;;1.40;;
16426;SDS011;8322;-33.900;151.170;2023-06-01T02:49:07;3.03;;;1.95;;
16426;SDS011;8322;-33.900;151.170;2023-06-01T02:51:36;4.63;;;3.83;;
16426;SDS011;8322;-33.900;151.170;2023-06-01T02:54:06;4.85;;;2.60;;
16426;SDS011;8322;-33.900;151.170;2023-06-01T02:56:35;3.25;;;1.60;;
16426;SDS011;8322;-33.900;151.170;2023-06-01T02:59:05;2.10;;;1.10;;
16426;SDS011;8322;-33.900;151.170;2023-06-01T03:01:34;2.70;;;1.10;;
16426;SDS011;8322;-33.900;151.170;2023-06-01T03:04:06;4.30;;;1.35;;
16426;SDS011;8322;-33.900;151.170;2023-06-01T03:06:36;2.08;;;1.02;;
16426;SDS011;8322;-33.900;151.170;2023-06-01T03:09:06;2.33;;;1.10;;
16426;SDS011;8322;-33.900;151.170;2023-06-01T03:11:39;1.50;;;1.20;;
16426;SDS011;8322;-33.900;151.170;2023-06-01T03:14:09;2.28;;;1.50;;
16426;SDS011;8322;-33.900;151.170;2023-06-01T03:16:38;1.38;;;1.25;;
16426;SDS011;8322;-33.900;151.170;2023-06-01T03:19:10;1.92;;;1.50;;
16426;SDS011;8322;-33.900;151.170;2023-06-01T03:21:39;2.17;;;1.02;;
16426;SDS011;8322;-33.900;151.170;2023-06-01T03:24:09;1.85;;;1.13;;
16426;SDS011;8322;-33.900;151.170;2023-06-01T03:26:39;3.88;;;1.50;;
16426;SDS011;8322;-33.900;151.170;2023-06-01T03:29:09;2.33;;;1.05;;
16426;SDS011;8322;-33.900;151.170;2023-06-01T03:31:38;2.33;;;1.50;;
16426;SDS011;8322;-33.900;151.170;2023-06-01T03:34:10;1.25;;;1.00;;
16426;SDS011;8322;-33.900;151.170;2023-06-01T03:36:39;2.60;;;1.30;;
16426;SDS011;8322;-33.900;151.170;2023-06-01T03:39:14;1.75;;;1.40;;
16426;SDS011;8322;-33.900;151.170;2023-06-01T03:41:43;2.10;;;1.42;;
16426;SDS011;8322;-33.900;151.170;2023-06-01T03:44:13;2.67;;;1.27;;
16426;SDS011;8322;-33.900;151.170;2023-06-01T03:46:42;2.30;;;1.40;;
16426;SDS011;8322;-33.900;151.170;2023-06-01T03:49:14;2.95;;;1.15;;
16426;SDS011;8322;-33.900;151.170;2023-06-01T03:51:44;2.03;;;1.40;;
16426;SDS011;8322;-33.900;151.170;2023-06-01T03:54:13;4.32;;;1.85;;
16426;SDS011;8322;-33.900;151.170;2023-06-01T03:56:43;3.15;;;1.40;;
16426;SDS011;8322;-33.900;151.170;2023-06-01T03:59:12;1.05;;;0.85;;
16426;SDS011;8322;-33.900;151.170;2023-06-01T04:01:42;5.43;;;1.60;;
16426;SDS011;8322;-33.900;151.170;2023-06-01T04:04:16;2.08;;;1.20;;
16426;SDS011;8322;-33.900;151.170;2023-06-01T04:06:45;2.35;;;1.13;;
16426;SDS011;8322;-33.900;151.170;2023-06-01T04:09:15;2.38;;;1.10;;
16426;SDS011;8322;-33.900;151.170;2023-06-01T04:11:45;2.63;;;1.20;;
16426;SDS011;8322;-33.900;151.170;2023-06-01T04:14:14;1.33;;;1.20;;
16426;SDS011;8322;-33.900;151.170;2023-06-01T04:16:44;2.22;;;1.00;;
16426;SDS011;8322;-33.900;151.170;2023-06-01T04:19:15;1.73;;;1.40;;
16426;SDS011;8322;-33.900;151.170;2023-06-01T04:21:44;2.25;;;1.20;;
16426;SDS011;8322;-33.900;151.170;2023-06-01T04:24:14;2.25;;;0.98;;
16426;SDS011;8322;-33.900;151.170;2023-06-01T04:26:43;2.15;;;1.20;;
16426;SDS011;8322;-33.900;151.170;2023-06-01T04:29:13;2.40;;;1.15;;
16426;SDS011;8322;-33.900;151.170;2023-06-01T04:31:45;2.35;;;1.35;;
16426;SDS011;8322;-33.900;151.170;2023-06-01T04:34:16;1.58;;;1.20;;
16426;SDS011;8322;-33.900;151.170;2023-06-01T04:36:46;2.38;;;1.10;;
16426;SDS011;8322;-33.900;151.170;2023-06-01T04:39:17;2.35;;;1.02;;
16426;SDS011;8322;-33.900;151.170;2023-06-01T04:41:46;1.27;;;1.05;;
16426;SDS011;8322;-33.900;151.170;2023-06-01T04:44:16;2.67;;;1.80;;
16426;SDS011;8322;-33.900;151.170;2023-06-01T04:46:47;2.60;;;1.63;;
16426;SDS011;8322;-33.900;151.170;2023-06-01T04:49:22;2.45;;;1.20;;
16426;SDS011;8322;-33.900;151.170;2023-06-01T04:51:54;2.33;;;1.15;;
16426;SDS011;8322;-33.900;151.170;2023-06-01T04:54:23;1.95;;;1.42;;
16426;SDS011;8322;-33.900;151.170;2023-06-01T04:56:53;2.13;;;1.05;;
16426;SDS011;8322;-33.900;151.170;2023-06-01T04:59:22;2.85;;;1.30;;
16426;SDS011;8322;-33.900;151.170;2023-06-01T05:01:52;4.55;;;1.33;;
16426;SDS011;8322;-33.900;151.170;2023-06-01T05:04:23;7.38;;;1.90;;
16426;SDS011;8322;-33.900;151.170;2023-06-01T05:06:53;4.60;;;1.90;;
16426;SDS011;8322;-33.900;151.170;2023-06-01T05:09:22;3.80;;;1.48;;
16426;SDS011;8322;-33.900;151.170;2023-06-01T05:11:52;3.97;;;1.25;;
16426;SDS011;8322;-33.900;151.170;2023-06-01T05:14:21;3.03;;;1.15;;
16426;SDS011;8322;-33.900;151.170;2023-06-01T05:16:51;4.30;;;1.90;;
16426;SDS011;8322;-33.900;151.170;2023-06-01T05:19:21;3.58;;;1.30;;
16426;SDS011;8322;-33.900;151.170;2023-06-01T05:21:52;4.50;;;1.67;;
16426;SDS011;8322;-33.900;151.170;2023-06-01T05:24:22;2.83;;;1.45;;
16426;SDS011;8322;-33.900;151.170;2023-06-01T05:26:51;3.63;;;1.80;;
16426;SDS011;8322;-33.900;151.170;2023-06-01T05:29:23;2.95;;;1.73;;
16426;SDS011;8322;-33.900;151.170;2023-06-01T05:31:52;3.45;;;1.90;;
16426;SDS011;8322;-33.900;151.170;2023-06-01T05:34:21;6.97;;;2.63;;
16426;SDS011;8322;-33.900;151.170;2023-06-01T05:36:53;4.35;;;2.10;;
16426;SDS011;8322;-33.900;151.170;2023-06-01T05:39:22;2.40;;;1.90;;
16426;SDS011;8322;-33.900;151.170;2023-06-01T05:41:54;3.33;;;1.80;;
16426;SDS011;8322;-33.900;151.170;2023-06-01T05:44:23;4.88;;;2.50;;
16426;SDS011;8322;-33.900;151.170;2023-06-01T05:46:53;5.22;;;3.20;;
16426;SDS011;8322;-33.900;151.170;2023-06-01T05:49:22;5.15;;;2.50;;
16426;SDS011;8322;-33.900;151.170;2023-06-01T05:51:58;4.00;;;1.70;;
16426;SDS011;8322;-33.900;151.170;2023-06-01T05:54:27;4.55;;;1.60;;
16426;SDS011;8322;-33.900;151.170;2023-06-01T05:56:57;4.53;;;1.60;;
16426;SDS011;8322;-33.900;151.170;2023-06-01T05:59:26;2.83;;;1.48;;
16426;SDS011;8322;-33.900;151.170;2023-06-01T06:01:56;2.58;;;1.48;;
16426;SDS011;8322;-33.900;151.170;2023-06-01T06:04:25;4.00;;;1.65;;
16426;SDS011;8322;-33.900;151.170;2023-06-01T06:06:55;3.20;;;1.60;;
16426;SDS011;8322;-33.900;151.170;2023-06-01T06:09:26;4.43;;;1.50;;
16426;SDS011;8322;-33.900;151.170;2023-06-01T06:11:55;3.20;;;1.73;;
16426;SDS011;8322;-33.900;151.170;2023-06-01T06:14:25;1.80;;;1.60;;
16426;SDS011;8322;-33.900;151.170;2023-06-01T06:16:54;2.95;;;1.83;;
16426;SDS011;8322;-33.900;151.170;2023-06-01T06:19:24;4.03;;;1.90;;
16426;SDS011;8322;-33.900;151.170;2023-06-01T06:21:53;3.60;;;1.90;;
16426;SDS011;8322;-33.900;151.170;2023-06-01T06:24:23;3.80;;;1.40;;
16426;SDS011;8322;-33.900;151.170;2023-06-01T06:26:57;4.25;;;1.58;;
16426;SDS011;8322;-33.900;151.170;2023-06-01T06:29:27;3.58;;;1.88;;
16426;SDS011;8322;-33.900;151.170;2023-06-01T06:31:57;5.75;;;3.10;;
16426;SDS011;8322;-33.900;151.170;2023-06-01T06:34:26;3.75;;;2.28;;
16426;SDS011;8322;-33.900;151.170;2023-06-01T06:37:01;3.80;;;2.05;;
16426;SDS011;8322;-33.900;151.170;2023-06-01T06:39:31;7.22;;;2.38;;
16426;SDS011;8322;-33.900;151.170;2023-06-01T06:42:02;7.78;;;4.78;;
16426;SDS011;8322;-33.900;151.170;2023-06-01T06:44:32;9.50;;;4.90;;
16426;SDS011;8322;-33.900;151.170;2023-06-01T06:47:01;4.45;;;2.65;;
16426;SDS011;8322;-33.900;151.170;2023-06-01T06:49:31;4.57;;;2.95;;
16426;SDS011;8322;-33.900;151.170;2023-06-01T06:52:00;6.75;;;4.10;;
16426;SDS011;8322;-33.900;151.170;2023-06-01T06:54:30;6.40;;;3.70;;
16426;SDS011;8322;-33.900;151.170;2023-06-01T06:56:59;7.55;;;5.03;;
16426;SDS011;8322;-33.900;151.170;2023-06-01T06:59:31;6.93;;;3.95;;
16426;SDS011;8322;-33.900;151.170;2023-06-01T07:02:00;6.65;;;4.00;;
16426;SDS011;8322;-33.900;151.170;2023-06-01T07:04:30;7.53;;;3.97;;
16426;SDS011;8322;-33.900;151.170;2023-06-01T07:06:59;6.93;;;5.05;;
16426;SDS011;8322;-33.900;151.170;2023-06-01T07:09:30;10.75;;;6.28;;
16426;SDS011;8322;-33.900;151.170;2023-06-01T07:11:59;9.25;;;5.97;;
16426;SDS011;8322;-33.900;151.170;2023-06-01T07:14:30;11.00;;;7.35;;
16426;SDS011;8322;-33.900;151.170;2023-06-01T07:17:00;14.63;;;8.63;;
16426;SDS011;8322;-33.900;151.170;2023-06-01T07:19:30;16.65;;;11.50;;
16426;SDS011;8322;-33.900;151.170;2023-06-01T07:22:00;12.43;;;6.63;;
16426;SDS011;8322;-33.900;151.170;2023-06-01T07:24:30;6.47;;;3.47;;
16426;SDS011;8322;-33.900;151.170;2023-06-01T07:26:59;4.38;;;2.65;;
16426;SDS011;8322;-33.900;151.170;2023-06-01T07:29:30;5.50;;;2.22;;
16426;SDS011;8322;-33.900;151.170;2023-06-01T07:32:00;3.78;;;1.98;;
16426;SDS011;8322;-33.900;151.170;2023-06-01T07:34:29;5.72;;;2.50;;
16426;SDS011;8322;-33.900;151.170;2023-06-01T07:36:59;8.05;;;2.97;;
16426;SDS011;8322;-33.900;151.170;2023-06-01T07:39:29;6.95;;;3.95;;
16426;SDS011;8322;-33.900;151.170;2023-06-01T07:41:59;8.02;;;4.68;;
16426;SDS011;8322;-33.900;151.170;2023-06-01T07:44:30;7.45;;;2.70;;
16426;SDS011;8322;-33.900;151.170;2023-06-01T07:47:00;5.63;;;2.90;;
16426;SDS011;8322;-33.900;151.170;2023-06-01T07:49:29;4.70;;;2.20;;
16426;SDS011;8322;-33.900;151.170;2023-06-01T07:52:01;7.50;;;2.42;;
16426;SDS011;8322;-33.900;151.170;2023-06-01T07:54:31;5.47;;;2.65;;
16426;SDS011;8322;-33.900;151.170;2023-06-01T07:57:00;6.35;;;3.78;;
16426;SDS011;8322;-33.900;151.170;2023-06-01T07:59:32;8.70;;;5.60;;
16426;SDS011;8322;-33.900;151.170;2023-06-01T08:02:01;10.63;;;4.80;;
16426;SDS011;8322;-33.900;151.170;2023-06-01T08:04:31;4.47;;;3.08;;
16426;SDS011;8322;-33.900;151.170;2023-06-01T08:07:00;6.68;;;3.92;;
16426;SDS011;8322;-33.900;151.170;2023-06-01T08:09:32;10.82;;;7.40;;
16426;SDS011;8322;-33.900;151.170;2023-06-01T08:12:03;5.30;;;3.40;;
16426;SDS011;8322;-33.900;151.170;2023-06-01T08:14:35;5.82;;;4.90;;
16426;SDS011;8322;-33.900;151.170;2023-06-01T08:17:05;8.75;;;6.10;;
16426;SDS011;8322;-33.900;151.170;2023-06-01T08:19:37;5.40;;;4.00;;
16426;SDS011;8322;-33.900;151.170;2023-06-01T08:22:07;5.03;;;2.78;;
16426;SDS011;8322;-33.900;151.170;2023-06-01T08:24:37;6.35;;;2.85;;
16426;SDS011;8322;-33.900;151.170;2023-06-01T08:27:16;4.30;;;2.40;;
16426;SDS011;8322;-33.900;151.170;2023-06-01T08:29:48;4.60;;;2.10;;
16426;SDS011;8322;-33.900;151.170;2023-06-01T08:32:18;4.22;;;2.33;;
16426;SDS011;8322;-33.900;151.170;2023-06-01T08:34:48;5.28;;;2.72;;
16426;SDS011;8322;-33.900;151.170;2023-06-01T08:37:17;3.83;;;2.30;;
16426;SDS011;8322;-33.900;151.170;2023-06-01T08:39:47;4.63;;;2.10;;
16426;SDS011;8322;-33.900;151.170;2023-06-01T08:42:19;5.03;;;2.10;;
16426;SDS011;8322;-33.900;151.170;2023-06-01T08:44:51;3.90;;;2.45;;
16426;SDS011;8322;-33.900;151.170;2023-06-01T08:47:22;3.67;;;2.50;;
16426;SDS011;8322;-33.900;151.170;2023-06-01T08:49:53;3.75;;;2.40;;
16426;SDS011;8322;-33.900;151.170;2023-06-01T08:52:25;5.72;;;2.92;;
16426;SDS011;8322;-33.900;151.170;2023-06-01T08:54:55;5.85;;;2.90;;
16426;SDS011;8322;-33.900;151.170;2023-06-01T08:57:25;7.05;;;2.92;;
16426;SDS011;8322;-33.900;151.170;2023-06-01T08:59:56;7.80;;;3.78;;
16426;SDS011;8322;-33.900;151.170;2023-06-01T09:02:26;6.38;;;3.55;;
16426;SDS011;8322;-33.900;151.170;2023-06-01T09:04:55;8.30;;;3.75;;
16426;SDS011;8322;-33.900;151.170;2023-06-01T09:07:25;6.90;;;3.83;;
16426;SDS011;8322;-33.900;151.170;2023-06-01T09:09:57;7.47;;;3.75;;
16426;SDS011;8322;-33.900;151.170;2023-06-01T09:12:27;5.78;;;3.70;;
16426;SDS011;8322;-33.900;151.170;2023-06-01T09:15:11;8.32;;;4.07;;
16426;SDS011;8322;-33.900;151.170;2023-06-01T09:17:42;8.15;;;4.15;;
16426;SDS011;8322;-33.900;151.170;2023-06-01T09:20:12;7.13;;;4.05;;
16426;SDS011;8322;-33.900;151.170;2023-06-01T09:22:42;8.38;;;4.60;;
16426;SDS011;8322;-33.900;151.170;2023-06-01T09:25:12;5.55;;;4.20;;
16426;SDS011;8322;-33.900;151.170;2023-06-01T09:27:43;7.32;;;5.00;;
16426;SDS011;8322;-33.900;151.170;2023-06-01T09:30:15;9.73;;;5.18;;
16426;SDS011;8322;-33.900;151.170;2023-06-01T09:32:45;8.38;;;5.20;;
16426;SDS011;8322;-33.900;151.170;2023-06-01T09:35:16;8.52;;;5.20;;
16426;SDS011;8322;-33.900;151.170;2023-06-01T09:37:55;11.25;;;6.90;;
16426;SDS011;8322;-33.900;151.170;2023-06-01T09:40:29;11.30;;;6.63;;
16426;SDS011;8322;-33.900;151.170;2023-06-01T09:42:58;10.98;;;6.55;;
16426;SDS011;8322;-33.900;151.170;2023-06-01T09:45:30;12.65;;;6.90;;
16426;SDS011;8322;-33.900;151.170;2023-06-01T09:50:44;9.65;;;4.40;;
16426;SDS011;8322;-33.900;151.170;2023-06-01T09:53:13;9.57;;;4.13;;
16426;SDS011;8322;-33.900;151.170;2023-06-01T09:58:27;10.48;;;3.83;;
16426;SDS011;8322;-33.900;151.170;2023-06-01T10:00:59;17.02;;;4.40;;
16426;SDS011;8322;-33.900;151.170;2023-06-01T10:03:30;14.02;;;4.20;;
16426;SDS011;8322;-33.900;151.170;2023-06-01T10:06:00;17.40;;;4.60;;
16426;SDS011;8322;-33.900;151.170;2023-06-01T10:08:30;16.05;;;4.53;;
16426;SDS011;8322;-33.900;151.170;2023-06-01T10:11:00;17.40;;;4.07;;
16426;SDS011;8322;-33.900;151.170;2023-06-01T10:13:30;14.00;;;4.90;;
16426;SDS011;8322;-33.900;151.170;2023-06-01T10:16:01;17.85;;;5.35;;
16426;SDS011;8322;-33.900;151.170;2023-06-01T10:18:31;13.88;;;4.97;;
16426;SDS011;8322;-33.900;151.170;2023-06-01T10:21:00;16.15;;;5.18;;
16426;SDS011;8322;-33.900;151.170;2023-06-01T10:23:32;17.10;;;4.70;;
16426;SDS011;8322;-33.900;151.170;2023-06-01T10:26:04;18.65;;;4.93;;
16426;SDS011;8322;-33.900;151.170;2023-06-01T10:28:37;19.63;;;4.60;;
16426;SDS011;8322;-33.900;151.170;2023-06-01T10:33:56;31.42;;;12.15;;
16426;SDS011;8322;-33.900;151.170;2023-06-01T10:39:22;25.20;;;8.70;;
16426;SDS011;8322;-33.900;151.170;2023-06-01T10:41:51;22.05;;;5.55;;
16426;SDS011;8322;-33.900;151.170;2023-06-01T10:50:09;17.88;;;4.47;;
16426;SDS011;8322;-33.900;151.170;2023-06-01T10:52:40;23.75;;;4.63;;
16426;SDS011;8322;-33.900;151.170;2023-06-01T10:55:19;17.77;;;3.97;;
16426;SDS011;8322;-33.900;151.170;2023-06-01T10:57:49;21.25;;;3.97;;
16426;SDS011;8322;-33.900;151.170;2023-06-01T11:00:20;20.90;;;4.43;;
16426;SDS011;8322;-33.900;151.170;2023-06-01T11:02:55;23.77;;;5.03;;
16426;SDS011;8322;-33.900;151.170;2023-06-01T11:05:43;21.30;;;4.80;;
16426;SDS011;8322;-33.900;151.170;2023-06-01T11:11:01;21.80;;;5.28;;
16426;SDS011;8322;-33.900;151.170;2023-06-01T11:13:32;27.08;;;7.13;;
16426;SDS011;8322;-33.900;151.170;2023-06-01T11:18:49;28.83;;;8.07;;
16426;SDS011;8322;-33.900;151.170;2023-06-01T11:21:26;36.45;;;7.97;;
16426;SDS011;8322;-33.900;151.170;2023-06-01T11:23:56;27.02;;;5.68;;
16426;SDS011;8322;-33.900;151.170;2023-06-01T11:26:29;23.67;;;5.00;;
16426;SDS011;8322;-33.900;151.170;2023-06-01T11:31:45;22.00;;;6.20;;
16426;SDS011;8322;-33.900;151.170;2023-06-01T11:34:15;25.10;;;5.13;;
16426;SDS011;8322;-33.900;151.170;2023-06-01T11:36:50;29.05;;;5.95;;
16426;SDS011;8322;-33.900;151.170;2023-06-01T11:39:22;27.40;;;6.05;;
16426;SDS011;8322;-33.900;151.170;2023-06-01T11:41:52;27.10;;;6.35;;
16426;SDS011;8322;-33.900;151.170;2023-06-01T11:44:21;28.20;;;6.90;;
16426;SDS011;8322;-33.900;151.170;2023-06-01T11:46:54;30.45;;;6.28;;
16426;SDS011;8322;-33.900;151.170;2023-06-01T11:49:24;24.88;;;5.63;;
16426;SDS011;8322;-33.900;151.170;2023-06-01T11:51:56;36.70;;;5.55;;
16426;SDS011;8322;-33.900;151.170;2023-06-01T11:54:26;30.00;;;4.93;;
16426;SDS011;8322;-33.900;151.170;2023-06-01T11:56:56;27.42;;;4.70;;
16426;SDS011;8322;-33.900;151.170;2023-06-01T11:59:25;26.80;;;4.90;;
16426;SDS011;8322;-33.900;151.170;2023-06-01T12:01:55;29.73;;;5.25;;
16426;SDS011;8322;-33.900;151.170;2023-06-01T12:04:25;27.35;;;4.82;;
16426;SDS011;8322;-33.900;151.170;2023-06-01T12:07:05;23.80;;;4.43;;
16426;SDS011;8322;-33.900;151.170;2023-06-01T12:09:35;23.55;;;5.03;;
16426;SDS011;8322;-33.900;151.170;2023-06-01T12:12:05;25.40;;;4.18;;
16426;SDS011;8322;-33.900;151.170;2023-06-01T12:14:34;27.30;;;4.85;;
16426;SDS011;8322;-33.900;151.170;2023-06-01T12:17:04;27.15;;;4.75;;
16426;SDS011;8322;-33.900;151.170;2023-06-01T12:19:43;25.85;;;5.07;;
16426;SDS011;8322;-33.900;151.170;2023-06-01T12:22:15;28.35;;;4.88;;
16426;SDS011;8322;-33.900;151.170;2023-06-01T12:24:45;32.13;;;5.13;;
16426;SDS011;8322;-33.900;151.170;2023-06-01T12:27:15;23.42;;;4.78;;
16426;SDS011;8322;-33.900;151.170;2023-06-01T12:29:45;25.17;;;4.75;;
16426;SDS011;8322;-33.900;151.170;2023-06-01T12:32:16;24.77;;;4.75;;
16426;SDS011;8322;-33.900;151.170;2023-06-01T12:37:31;18.63;;;3.88;;
16426;SDS011;8322;-33.900;151.170;2023-06-01T12:40:01;28.90;;;4.32;;
16426;SDS011;8322;-33.900;151.170;2023-06-01T12:42:35;32.38;;;5.10;;
16426;SDS011;8322;-33.900;151.170;2023-06-01T12:45:05;30.58;;;5.32;;
16426;SDS011;8322;-33.900;151.170;2023-06-01T12:47:35;31.40;;;4.63;;
16426;SDS011;8322;-33.900;151.170;2023-06-01T12:50:05;24.50;;;4.30;;
16426;SDS011;8322;-33.900;151.170;2023-06-01T12:52:36;26.52;;;4.78;;
16426;SDS011;8322;-33.900;151.170;2023-06-01T12:55:06;29.10;;;4.80;;
16426;SDS011;8322;-33.900;151.170;2023-06-01T12:57:36;26.63;;;4.60;;
16426;SDS011;8322;-33.900;151.170;2023-06-01T13:00:07;24.95;;;4.80;;
16426;SDS011;8322;-33.900;151.170;2023-06-01T13:02:38;20.23;;;3.90;;
16426;SDS011;8322;-33.900;151.170;2023-06-01T13:05:07;31.33;;;5.13;;
16426;SDS011;8322;-33.900;151.170;2023-06-01T13:07:38;24.00;;;4.32;;
16426;SDS011;8322;-33.900;151.170;2023-06-01T13:10:09;26.75;;;4.30;;
16426;SDS011;8322;-33.900;151.170;2023-06-01T13:12:39;30.50;;;4.47;;
16426;SDS011;8322;-33.900;151.170;2023-06-01T13:15:09;23.00;;;3.70;;
16426;SDS011;8322;-33.900;151.170;2023-06-01T13:17:39;22.08;;;4.70;;
16426;SDS011;8322;-33.900;151.170;2023-06-01T13:20:08;23.73;;;4.55;;
16426;SDS011;8322;-33.900;151.170;2023-06-01T13:22:44;30.45;;;4.28;;
16426;SDS011;8322;-33.900;151.170;2023-06-01T13:25:13;26.48;;;5.20;;
16426;SDS011;8322;-33.900;151.170;2023-06-01T13:27:43;26.45;;;4.63;;
16426;SDS011;8322;-33.900;151.170;2023-06-01T13:30:13;19.40;;;3.80;;
16426;SDS011;8322;-33.900;151.170;2023-06-01T13:32:43;21.75;;;4.43;;
16426;SDS011;8322;-33.900;151.170;2023-06-01T13:35:13;25.27;;;4.82;;
16426;SDS011;8322;-33.900;151.170;2023-06-01T13:37:44;19.95;;;4.63;;
16426;SDS011;8322;-33.900;151.170;2023-06-01T13:40:13;19.52;;;4.50;;
16426;SDS011;8322;-33.900;151.170;2023-06-01T13:42:44;22.95;;;4.82;;
16426;SDS011;8322;-33.900;151.170;2023-06-01T13:45:13;17.23;;;4.20;;
16426;SDS011;8322;-33.900;151.170;2023-06-01T13:47:43;22.38;;;4.53;;
16426;SDS011;8322;-33.900;151.170;2023-06-01T13:50:13;19.30;;;4.35;;
16426;SDS011;8322;-33.900;151.170;2023-06-01T13:52:45;21.40;;;5.03;;
16426;SDS011;8322;-33.900;151.170;2023-06-01T13:55:14;30.48;;;5.30;;
16426;SDS011;8322;-33.900;151.170;2023-06-01T13:57:44;25.58;;;5.57;;
16426;SDS011;8322;-33.900;151.170;2023-06-01T14:00:14;23.23;;;4.63;;
16426;SDS011;8322;-33.900;151.170;2023-06-01T14:02:44;20.15;;;4.43;;
16426;SDS011;8322;-33.900;151.170;2023-06-01T14:05:13;22.90;;;5.18;;
16426;SDS011;8322;-33.900;151.170;2023-06-01T14:07:44;21.40;;;4.22;;
16426;SDS011;8322;-33.900;151.170;2023-06-01T14:10:14;20.98;;;4.20;;
16426;SDS011;8322;-33.900;151.170;2023-06-01T14:12:44;21.60;;;3.95;;
16426;SDS011;8322;-33.900;151.170;2023-06-01T14:15:13;24.92;;;4.95;;
16426;SDS011;8322;-33.900;151.170;2023-06-01T14:17:43;25.88;;;5.05;;
16426;SDS011;8322;-33.900;151.170;2023-06-01T14:20:12;20.05;;;4.47;;
16426;SDS011;8322;-33.900;151.170;2023-06-01T14:22:42;18.98;;;4.50;;
16426;SDS011;8322;-33.900;151.170;2023-06-01T14:25:13;18.05;;;4.00;;
16426;SDS011;8322;-33.900;151.170;2023-06-01T14:27:43;20.67;;;4.45;;
16426;SDS011;8322;-33.900;151.170;2023-06-01T14:30:12;21.67;;;4.50;;
16426;SDS011;8322;-33.900;151.170;2023-06-01T14:32:42;18.40;;;3.67;;
16426;SDS011;8322;-33.900;151.170;2023-06-01T14:35:11;19.77;;;4.63;;
16426;SDS011;8322;-33.900;151.170;2023-06-01T14:37:42;22.60;;;3.97;;
16426;SDS011;8322;-33.900;151.170;2023-06-01T14:40:14;21.90;;;4.07;;
16426;SDS011;8322;-33.900;151.170;2023-06-01T14:42:43;21.50;;;5.30;;
16426;SDS011;8322;-33.900;151.170;2023-06-01T14:45:12;21.60;;;3.78;;
16426;SDS011;8322;-33.900;151.170;2023-06-01T14:47:42;22.77;;;4.45;;
16426;SDS011;8322;-33.900;151.170;2023-06-01T14:50:11;17.13;;;3.70;;
16426;SDS011;8322;-33.900;151.170;2023-06-01T14:52:41;18.30;;;4.05;;
16426;SDS011;8322;-33.900;151.170;2023-06-01T14:55:10;24.45;;;4.22;;
16426;SDS011;8322;-33.900;151.170;2023-06-01T14:57:42;26.77;;;5.35;;
16426;SDS011;8322;-33.900;151.170;2023-06-01T15:00:12;19.20;;;3.97;;
16426;SDS011;8322;-33.900;151.170;2023-06-01T15:02:42;25.02;;;4.47;;